createdAt,value
2022-11-15T17:37:01.562Z,27.92
2022-11-15T17:39:30.886Z,29.73
2022-11-15T17:42:00.046Z,29.38
2022-11-15T17:44:29.218Z,31.17
2022-11-15T17:47:00.690Z,30.33
2022-11-15T17:49:29.868Z,30.73
2022-11-15T17:52:00.507Z,30.25
2022-11-15T17:54:29.592Z,30.15
2022-11-15T17:56:58.725Z,27.58
2022-11-15T17:59:28.067Z,28.55
2022-11-15T18:01:57.364Z,29.27
2022-11-15T18:04:28.373Z,29.58
2022-11-15T18:06:57.595Z,30.55
2022-11-15T18:09:28.459Z,30.90
2022-11-15T18:11:58.700Z,31.20
2022-11-15T18:14:31.619Z,31.52
2022-11-15T18:17:00.791Z,30.85
2022-11-15T18:19:29.889Z,30.65
2022-11-15T18:21:59.252Z,30.73
2022-11-15T18:24:31.410Z,30.25
2022-11-15T18:27:02.190Z,32.75
2022-11-15T18:29:32.721Z,32.03
2022-11-15T18:32:05.097Z,32.80
2022-11-15T18:34:34.328Z,31.38
2022-11-15T18:37:03.912Z,31.75
2022-11-15T18:39:34.561Z,32.50
2022-11-15T18:42:03.872Z,31.20
2022-11-15T18:44:33.156Z,31.58
2022-11-15T18:47:02.288Z,32.15
2022-11-15T18:49:31.583Z,32.17
2022-11-15T18:52:02.108Z,32.17
2022-11-15T18:54:33.187Z,31.90
2022-11-15T18:57:02.299Z,32.08
2022-11-15T18:59:31.731Z,32.80
2022-11-15T19:02:00.835Z,34.03
2022-11-15T19:04:30.591Z,31.55
2022-11-15T19:07:00.107Z,34.67
2022-11-15T19:09:32.911Z,32.97
2022-11-15T19:12:03.645Z,33.30
2022-11-15T19:14:33.121Z,33.35
2022-11-15T19:17:03.019Z,35.20
2022-11-15T19:19:35.353Z,35.35
2022-11-15T19:22:04.482Z,35.08
2022-11-15T19:24:34.415Z,33.97
2022-11-15T19:27:05.049Z,35.10
2022-11-15T19:29:34.461Z,35.45
2022-11-15T19:32:05.447Z,35.75
2022-11-15T19:34:37.282Z,31.27
2022-11-15T19:37:06.453Z,36.60
2022-11-15T19:39:39.816Z,34.33
2022-11-15T19:42:12.094Z,35.42
2022-11-15T19:44:41.221Z,38.05
2022-11-15T19:47:11.386Z,35.05
2022-11-15T19:49:40.814Z,35.30
2022-11-15T19:52:10.225Z,36.63
2022-11-15T19:54:39.646Z,34.65
2022-11-15T19:57:08.816Z,34.17
2022-11-15T19:59:40.099Z,33.08
2022-11-15T20:02:11.939Z,33.50
2022-11-15T20:04:41.047Z,34.47
2022-11-15T20:07:10.687Z,35.13
2022-11-15T20:09:39.966Z,33.13
2022-11-15T20:12:09.258Z,33.80
2022-11-15T20:14:39.803Z,34.15
2022-11-15T20:17:09.987Z,33.28
2022-11-15T20:19:39.165Z,31.58
2022-11-15T20:22:08.518Z,33.08
2022-11-15T20:24:38.068Z,32.78
2022-11-15T20:27:08.611Z,33.65
2022-11-15T20:29:43.784Z,32.55
2022-11-15T20:32:16.308Z,34.08
2022-11-15T20:34:49.005Z,33.05
2022-11-15T20:37:22.598Z,32.50
2022-11-15T20:39:51.862Z,32.35
2022-11-15T20:42:20.971Z,32.38
2022-11-15T20:44:52.243Z,34.38
2022-11-15T20:47:22.681Z,31.27
2022-11-15T20:49:55.543Z,35.08
2022-11-15T20:52:25.139Z,33.92
2022-11-15T20:54:54.468Z,37.25
2022-11-15T20:57:23.510Z,35.33
2022-11-15T20:59:54.041Z,34.15
2022-11-15T21:02:23.192Z,34.95
2022-11-15T21:04:55.540Z,33.00
2022-11-15T21:07:25.246Z,34.10
2022-11-15T21:10:12.025Z,33.65
2022-11-15T21:12:41.178Z,34.13
2022-11-15T21:15:12.091Z,34.38
2022-11-15T21:17:41.703Z,33.28
2022-11-15T21:20:12.667Z,34.65
2022-11-15T21:22:41.956Z,36.63
2022-11-15T21:25:13.522Z,34.33
2022-11-15T21:27:42.573Z,36.83
2022-11-15T21:30:14.555Z,34.70
2022-11-15T21:32:45.653Z,35.38
2022-11-15T21:35:14.806Z,37.17
2022-11-15T21:37:45.208Z,36.35
2022-11-15T21:40:15.032Z,37.90
2022-11-15T21:42:44.120Z,37.00
2022-11-15T21:45:14.698Z,41.85
2022-11-15T21:47:46.287Z,35.40
2022-11-15T21:50:15.954Z,36.80
2022-11-15T21:52:46.988Z,35.63
2022-11-15T21:55:16.357Z,34.60
2022-11-15T21:57:45.399Z,33.97
2022-11-15T22:00:37.742Z,33.70
2022-11-15T22:03:06.900Z,34.47
2022-11-15T22:05:35.991Z,35.03
2022-11-15T22:08:05.344Z,36.08
2022-11-15T22:10:34.539Z,35.67
2022-11-15T22:13:03.600Z,36.15
2022-11-15T22:15:35.186Z,36.00
2022-11-15T22:18:04.623Z,34.42
2022-11-15T22:20:49.286Z,35.88
2022-11-15T22:23:18.608Z,34.92
2022-11-15T22:25:48.047Z,41.40
2022-11-15T22:28:17.654Z,42.70
2022-11-15T22:30:49.702Z,40.35
2022-11-15T22:33:21.157Z,38.63
2022-11-15T22:35:50.741Z,38.03
2022-11-15T22:38:20.703Z,37.38
2022-11-15T22:40:50.150Z,36.05
2022-11-15T22:43:23.050Z,36.90
2022-11-15T22:45:58.684Z,35.90
2022-11-15T22:48:29.917Z,37.90
2022-11-15T22:50:59.560Z,37.65
2022-11-15T22:53:30.373Z,37.67
2022-11-15T22:56:02.933Z,36.45
2022-11-15T22:58:34.267Z,35.72
2022-11-15T23:01:06.939Z,36.13
2022-11-15T23:03:36.457Z,33.78
2022-11-15T23:06:08.106Z,35.20
2022-11-15T23:08:38.141Z,33.92
2022-11-15T23:11:25.554Z,36.40
2022-11-15T23:13:55.037Z,33.90
2022-11-15T23:16:34.569Z,36.67
2022-11-15T23:19:08.086Z,35.53
2022-11-15T23:21:56.999Z,36.92
2022-11-15T23:24:26.998Z,36.00
2022-11-15T23:27:00.052Z,35.90
2022-11-15T23:29:30.447Z,34.28
2022-11-15T23:32:18.210Z,37.38
2022-11-15T23:34:47.732Z,39.78
2022-11-15T23:37:17.665Z,35.35
2022-11-15T23:39:47.027Z,34.60
2022-11-15T23:42:20.105Z,36.28
2022-11-15T23:44:51.074Z,37.78
2022-11-15T23:47:22.076Z,37.10
2022-11-15T23:49:51.662Z,36.15
2022-11-15T23:52:23.258Z,39.20
2022-11-15T23:54:52.492Z,42.50
2022-11-15T23:57:21.895Z,38.78
2022-11-15T23:59:51.227Z,40.10
